createdAt,value
2017-10-04T00:00:36.487Z,12.53
2017-10-04T00:03:04.043Z,8.77
2017-10-04T00:05:31.628Z,18.25
2017-10-04T00:07:59.191Z,18.20
2017-10-04T00:10:27.133Z,16.83
2017-10-04T00:12:54.704Z,16.53
2017-10-04T00:15:23.212Z,11.77
2017-10-04T00:17:51.539Z,16.13
2017-10-04T00:20:19.140Z,21.53
2017-10-04T00:22:46.701Z,13.47
2017-10-04T00:25:14.312Z,11.27
2017-10-04T00:27:41.874Z,13.93
2017-10-04T00:30:09.437Z,19.67
2017-10-04T00:32:37.025Z,20.17
2017-10-04T00:35:04.583Z,13.87
2017-10-04T00:37:32.177Z,15.53
2017-10-04T00:40:00.505Z,14.07
2017-10-04T00:42:28.091Z,18.60
2017-10-04T00:44:55.659Z,17.33
2017-10-04T00:47:25.268Z,25.10
2017-10-04T00:49:52.836Z,16.73
2017-10-04T00:52:20.400Z,21.20
2017-10-04T00:54:47.987Z,12.70
2017-10-04T00:57:15.544Z,24.53
2017-10-04T00:59:43.138Z,16.83
2017-10-04T01:02:10.695Z,13.83
2017-10-04T01:04:38.278Z,22.33
2017-10-04T01:07:05.840Z,24.43
2017-10-04T01:09:33.928Z,18.62
2017-10-04T01:12:01.487Z,15.10
2017-10-04T01:14:29.056Z,17.10
2017-10-04T01:16:56.875Z,20.20
2017-10-04T01:19:26.221Z,16.27
2017-10-04T01:21:54.863Z,23.63
2017-10-04T01:24:23.550Z,18.10
2017-10-04T01:26:52.032Z,24.80
2017-10-04T01:29:19.630Z,15.93
2017-10-04T01:31:47.200Z,23.00
2017-10-04T01:34:14.855Z,22.50
2017-10-04T01:36:42.424Z,18.87
2017-10-04T01:39:10.011Z,18.10
2017-10-04T01:41:37.609Z,15.00
2017-10-04T01:44:05.201Z,17.27
2017-10-04T01:46:32.764Z,20.20
2017-10-04T01:49:00.350Z,18.03
2017-10-04T01:51:28.676Z,17.70
2017-10-04T01:53:56.241Z,20.07
2017-10-04T01:56:24.776Z,23.27
2017-10-04T01:58:52.340Z,24.30
2017-10-04T02:01:19.936Z,18.50
2017-10-04T02:03:47.504Z,22.27
2017-10-04T02:06:15.244Z,25.10
2017-10-04T02:08:42.817Z,21.85
2017-10-04T02:11:10.408Z,17.70
2017-10-04T02:13:38.008Z,21.77
2017-10-04T02:16:05.611Z,38.30
2017-10-04T02:18:33.196Z,19.98
2017-10-04T02:21:00.852Z,21.77
2017-10-04T02:23:28.519Z,20.43
2017-10-04T02:25:56.083Z,21.90
2017-10-04T02:28:25.874Z,20.52
2017-10-04T02:30:53.440Z,21.77
2017-10-04T02:33:21.174Z,18.43
2017-10-04T02:35:48.736Z,19.48
2017-10-04T02:38:16.321Z,23.60
2017-10-04T02:40:43.892Z,20.73
2017-10-04T02:43:11.685Z,23.73
2017-10-04T02:45:40.020Z,32.88
2017-10-04T02:48:07.583Z,20.17
2017-10-04T02:50:35.164Z,23.70
2017-10-04T02:53:03.501Z,19.80
2017-10-04T02:55:31.311Z,19.63
2017-10-04T02:57:58.876Z,28.20
2017-10-04T03:00:27.204Z,31.57
2017-10-04T03:02:54.792Z,21.30
2017-10-04T03:05:23.180Z,27.50
2017-10-04T03:07:50.767Z,18.97
2017-10-04T03:10:19.100Z,19.60
2017-10-04T03:12:46.724Z,24.43
2017-10-04T03:15:14.288Z,18.33
2017-10-04T03:17:41.857Z,39.50
2017-10-04T03:20:09.447Z,22.07
2017-10-04T03:22:37.016Z,20.40
2017-10-04T03:25:04.601Z,23.13
2017-10-04T03:27:33.033Z,17.92
2017-10-04T03:30:00.632Z,17.60
2017-10-04T03:32:28.196Z,34.07
2017-10-04T03:34:56.525Z,17.27
2017-10-04T03:37:25.028Z,20.93
2017-10-04T03:39:52.587Z,23.80
2017-10-04T03:42:20.173Z,33.80
2017-10-04T03:44:47.737Z,23.10
2017-10-04T03:47:15.396Z,23.13
2017-10-04T03:49:42.968Z,23.30
2017-10-04T03:52:10.723Z,19.47
2017-10-04T03:54:39.111Z,24.00
2017-10-04T03:57:06.672Z,30.10
2017-10-04T03:59:35.033Z,21.37
2017-10-04T04:02:02.600Z,17.90
2017-10-04T04:04:30.197Z,25.00
2017-10-04T04:06:57.768Z,23.13
2017-10-04T04:09:25.831Z,23.50
2017-10-04T04:11:53.387Z,17.57
2017-10-04T04:14:21.739Z,16.53
2017-10-04T04:16:49.400Z,16.60
2017-10-04T04:19:16.983Z,23.17
2017-10-04T04:21:45.317Z,23.07
2017-10-04T04:24:13.103Z,20.70
2017-10-04T04:26:40.663Z,14.07
2017-10-04T04:29:08.228Z,21.60
2017-10-04T04:31:35.816Z,18.50
2017-10-04T04:34:03.496Z,17.87
2017-10-04T04:36:31.080Z,19.03
2017-10-04T04:39:00.904Z,18.60
2017-10-04T04:41:28.500Z,13.93
2017-10-04T04:43:56.832Z,15.97
2017-10-04T04:46:26.184Z,19.85
2017-10-04T04:48:54.521Z,13.73
2017-10-04T04:51:22.092Z,17.67
2017-10-04T04:53:49.675Z,21.97
2017-10-04T04:56:18.001Z,20.73
2017-10-04T04:58:45.744Z,16.10
2017-10-04T05:01:13.304Z,26.93
2017-10-04T05:03:40.867Z,16.67
2017-10-04T05:06:08.493Z,26.33
2017-10-04T05:08:36.828Z,27.17
2017-10-04T05:11:04.416Z,24.87
2017-10-04T05:13:31.976Z,14.67
2017-10-04T05:15:59.577Z,26.47
2017-10-04T05:18:28.032Z,19.80
2017-10-04T05:20:55.999Z,27.40
2017-10-04T05:23:23.560Z,21.17
2017-10-04T05:25:51.224Z,22.83
2017-10-04T05:28:18.816Z,20.30
2017-10-04T05:30:47.168Z,18.90
2017-10-04T05:33:14.754Z,27.50
2017-10-04T05:35:43.085Z,23.17
2017-10-04T05:38:10.672Z,24.73
2017-10-04T05:40:38.232Z,21.90
2017-10-04T05:43:05.822Z,18.93
2017-10-04T05:45:33.392Z,25.50
2017-10-04T05:48:00.976Z,24.97
2017-10-04T05:50:30.116Z,21.65
2017-10-04T05:52:57.877Z,16.00
2017-10-04T05:55:25.443Z,22.47
2017-10-04T05:57:53.005Z,19.90
2017-10-04T06:00:21.364Z,26.20
2017-10-04T06:02:48.931Z,20.47
2017-10-04T06:05:17.279Z,17.77
2017-10-04T06:07:44.837Z,17.92
2017-10-04T06:10:12.424Z,23.43
2017-10-04T06:12:39.989Z,16.97
2017-10-04T06:15:07.571Z,19.63
2017-10-04T06:17:35.903Z,23.10
2017-10-04T06:20:03.490Z,19.23
2017-10-04T06:22:31.156Z,24.17
2017-10-04T06:25:00.456Z,17.70
2017-10-04T06:27:29.151Z,20.27
2017-10-04T06:29:56.716Z,19.33
2017-10-04T06:32:25.068Z,19.70
2017-10-04T06:34:52.664Z,16.60
2017-10-04T06:37:20.988Z,15.10
2017-10-04T06:39:48.548Z,19.40
2017-10-04T06:42:16.148Z,24.03
2017-10-04T06:44:43.721Z,16.70
2017-10-04T06:47:12.047Z,16.50
2017-10-04T06:49:39.632Z,19.75
2017-10-04T06:52:07.193Z,16.97
2017-10-04T06:54:34.784Z,28.77
2017-10-04T06:57:03.128Z,16.73
2017-10-04T06:59:30.728Z,20.90
2017-10-04T07:01:59.056Z,16.73
2017-10-04T07:04:26.706Z,18.60
2017-10-04T07:06:54.320Z,17.67
2017-10-04T07:09:22.744Z,24.33
2017-10-04T07:11:50.319Z,20.42
2017-10-04T07:14:17.907Z,18.80
2017-10-04T07:16:45.472Z,28.50
2017-10-04T07:19:13.177Z,20.40
2017-10-04T07:21:40.750Z,20.48
2017-10-04T07:24:08.328Z,20.90
2017-10-04T07:26:35.932Z,25.13
2017-10-04T07:29:04.279Z,23.33
2017-10-04T07:31:34.008Z,22.98
2017-10-04T07:34:01.575Z,20.33
2017-10-04T07:36:29.139Z,22.00
2017-10-04T07:38:57.500Z,32.03
2017-10-04T07:41:25.892Z,25.98
2017-10-04T07:43:53.489Z,27.63
2017-10-04T07:46:21.116Z,19.80
2017-10-04T07:48:49.467Z,25.37
2017-10-04T07:51:17.045Z,19.48
2017-10-04T07:56:18.636Z,21.40
2017-10-04T07:58:47.572Z,19.37
2017-10-04T08:01:15.141Z,15.07
2017-10-04T08:03:42.716Z,21.85
2017-10-04T08:06:10.300Z,23.43
2017-10-04T08:08:37.869Z,13.82
2017-10-04T08:11:06.440Z,19.37
2017-10-04T08:13:34.012Z,17.40
2017-10-04T08:16:02.345Z,16.83
2017-10-04T08:18:29.941Z,19.80
2017-10-04T08:20:57.504Z,19.50
2017-10-04T08:23:25.101Z,10.73
2017-10-04T08:25:52.664Z,15.50
2017-10-04T08:28:20.252Z,16.93
2017-10-04T08:30:47.847Z,13.43
2017-10-04T08:33:15.720Z,11.77
2017-10-04T08:35:43.296Z,13.13
2017-10-04T08:38:11.633Z,12.20
2017-10-04T08:40:39.308Z,14.45
2017-10-04T08:43:06.880Z,19.95
2017-10-04T08:45:34.473Z,15.00
2017-10-04T08:51:00.884Z,26.07
2017-10-04T08:53:28.447Z,12.20
2017-10-04T08:55:56.032Z,20.37
2017-10-04T08:58:24.365Z,13.90
2017-10-04T09:00:51.957Z,9.88
2017-10-04T09:03:19.524Z,16.93
2017-10-04T09:05:48.675Z,17.67
2017-10-04T09:08:16.268Z,14.10
2017-10-04T09:10:43.836Z,11.17
2017-10-04T09:13:11.424Z,19.47
2017-10-04T09:15:38.992Z,17.50
2017-10-04T09:18:06.713Z,12.73
2017-10-04T09:20:34.299Z,14.57
2017-10-04T09:23:02.635Z,21.70
2017-10-04T09:25:31.143Z,15.40
2017-10-04T09:27:58.708Z,14.80
2017-10-04T09:30:27.064Z,10.30
2017-10-04T09:32:54.640Z,11.87
2017-10-04T09:35:22.232Z,18.17
2017-10-04T09:37:49.798Z,13.20
2017-10-04T09:40:17.391Z,11.37
2017-10-04T09:42:44.955Z,11.03
2017-10-04T09:45:12.720Z,20.63
2017-10-04T09:47:40.293Z,13.90
2017-10-04T09:50:07.860Z,9.70
2017-10-04T09:52:35.468Z,8.90
2017-10-04T09:55:03.041Z,14.83
2017-10-04T09:57:31.556Z,12.40
2017-10-04T09:59:59.127Z,16.57
2017-10-04T10:02:26.749Z,5.77
2017-10-04T10:04:54.317Z,9.47
2017-10-04T10:07:21.882Z,9.50
2017-10-04T10:09:49.688Z,13.70
2017-10-04T10:12:18.020Z,16.60
2017-10-04T10:14:45.584Z,6.50
2017-10-04T10:17:13.287Z,12.23
2017-10-04T10:19:41.617Z,6.53
2017-10-04T10:22:09.179Z,4.97
2017-10-04T10:24:36.771Z,7.53
2017-10-04T10:27:04.339Z,7.73
2017-10-04T10:29:33.760Z,21.15
2017-10-04T10:32:02.100Z,16.20
2017-10-04T10:34:29.665Z,11.00
2017-10-04T10:36:57.256Z,13.10
2017-10-04T10:39:25.092Z,22.20
2017-10-04T10:41:52.700Z,28.03
2017-10-04T10:44:21.028Z,19.23
2017-10-04T10:46:48.597Z,11.60
2017-10-04T10:49:16.191Z,14.10
2017-10-04T10:51:44.524Z,16.30
2017-10-04T10:54:12.315Z,9.60
2017-10-04T10:56:39.984Z,7.70
2017-10-04T10:59:07.560Z,11.30
2017-10-04T11:01:35.940Z,14.80
2017-10-04T11:04:04.287Z,14.40
2017-10-04T11:06:33.808Z,15.05
2017-10-04T11:09:01.373Z,12.57
2017-10-04T11:11:28.968Z,15.18
2017-10-04T11:13:56.876Z,13.73
2017-10-04T11:16:24.471Z,17.53
2017-10-04T11:18:52.824Z,10.68
2017-10-04T11:21:20.392Z,14.50
2017-10-04T11:23:48.064Z,10.23
2017-10-04T11:26:15.627Z,8.63
2017-10-04T11:28:43.220Z,11.90
2017-10-04T11:31:10.839Z,9.67
2017-10-04T11:33:38.434Z,10.70
2017-10-04T11:36:06.003Z,10.13
2017-10-04T11:38:34.749Z,17.53
2017-10-04T11:41:02.320Z,13.13
2017-10-04T11:43:30.288Z,13.20
2017-10-04T11:45:57.948Z,10.50
2017-10-04T11:48:25.512Z,11.37
2017-10-04T11:50:53.113Z,10.43
2017-10-04T11:53:20.676Z,5.97
2017-10-04T11:55:48.272Z,19.30
2017-10-04T11:58:15.831Z,8.45
2017-10-04T12:00:43.440Z,17.70
2017-10-04T12:03:11.776Z,13.50
2017-10-04T12:05:39.348Z,10.50
2017-10-04T12:08:06.944Z,23.08
2017-10-04T12:10:34.508Z,15.90
2017-10-04T12:13:02.104Z,20.17
2017-10-04T12:15:29.672Z,15.63
2017-10-04T12:17:57.280Z,16.00
2017-10-04T12:20:25.616Z,16.77
2017-10-04T12:22:53.180Z,13.53
2017-10-04T12:25:20.763Z,7.03
2017-10-04T12:27:48.324Z,9.07
2017-10-04T12:30:16.680Z,11.20
2017-10-04T12:32:44.249Z,15.53
2017-10-04T12:35:11.841Z,11.80
2017-10-04T12:37:40.181Z,11.27
2017-10-04T12:40:07.890Z,20.00
2017-10-04T12:42:35.461Z,8.53
2017-10-04T12:45:03.032Z,10.03
2017-10-04T12:47:32.130Z,15.65
2017-10-04T12:49:59.706Z,11.70
2017-10-04T12:52:27.278Z,15.27
2017-10-04T12:54:54.872Z,12.03
2017-10-04T12:57:23.203Z,11.43
2017-10-04T12:59:50.796Z,9.65
2017-10-04T13:02:19.127Z,12.50
2017-10-04T13:04:46.712Z,4.50
2017-10-04T13:07:14.280Z,5.60
2017-10-04T13:09:42.026Z,10.07
2017-10-04T13:12:09.592Z,8.23
2017-10-04T13:14:37.920Z,8.20
2017-10-04T13:17:06.284Z,4.83
2017-10-04T13:19:33.853Z,12.80
2017-10-04T13:22:02.209Z,9.63
2017-10-04T13:24:29.776Z,4.40
2017-10-04T13:26:57.540Z,10.33
2017-10-04T13:29:25.105Z,9.77
2017-10-04T13:31:52.677Z,9.97
2017-10-04T13:34:21.247Z,13.50
2017-10-04T13:36:48.813Z,7.97
2017-10-04T13:39:16.379Z,12.57
2017-10-04T13:41:44.748Z,12.50
2017-10-04T13:44:12.317Z,7.30
2017-10-04T13:46:39.909Z,14.87
2017-10-04T13:49:07.478Z,11.03
2017-10-04T13:51:35.327Z,8.90
2017-10-04T13:54:03.679Z,7.60
2017-10-04T13:56:32.980Z,8.75
2017-10-04T13:59:00.552Z,10.63
2017-10-04T14:01:29.119Z,8.95
2017-10-04T14:03:56.679Z,9.33
2017-10-04T14:06:25.008Z,12.53
2017-10-04T14:08:52.602Z,13.50
2017-10-04T14:11:20.160Z,7.47
2017-10-04T14:13:47.748Z,11.85
2017-10-04T14:16:15.317Z,11.37
2017-10-04T14:18:43.679Z,15.90
2017-10-04T14:21:11.716Z,11.20
2017-10-04T14:23:39.284Z,6.63
2017-10-04T14:26:06.857Z,15.47
2017-10-04T14:28:34.457Z,17.90
2017-10-04T14:31:02.816Z,7.47
2017-10-04T14:33:31.335Z,13.57
2017-10-04T14:35:59.147Z,13.00
2017-10-04T14:38:26.737Z,13.00
2017-10-04T14:40:55.072Z,17.40
2017-10-04T14:43:22.665Z,14.97
2017-10-04T14:45:51.001Z,14.32
2017-10-04T14:48:18.612Z,12.50
2017-10-04T14:50:46.176Z,6.93
2017-10-04T14:53:14.512Z,13.17
2017-10-04T14:55:42.113Z,16.08
2017-10-04T14:58:09.690Z,12.40
2017-10-04T15:00:38.144Z,20.40
2017-10-04T15:03:07.216Z,10.87
2017-10-04T15:05:34.826Z,11.23
2017-10-04T15:08:03.156Z,9.73
2017-10-04T15:10:31.835Z,10.07
2017-10-04T15:12:59.423Z,11.93
2017-10-04T15:15:26.992Z,18.33
2017-10-04T15:17:54.585Z,8.30
2017-10-04T15:20:22.148Z,9.23
2017-10-04T15:22:49.891Z,9.90
2017-10-04T15:25:18.220Z,6.67
2017-10-04T15:27:45.788Z,14.33
2017-10-04T15:30:13.376Z,10.53
2017-10-04T15:32:41.719Z,7.07
2017-10-04T15:35:09.320Z,8.20
2017-10-04T15:37:36.894Z,7.62
2017-10-04T15:40:05.248Z,7.67
2017-10-04T15:42:33.916Z,6.30
2017-10-04T15:45:01.513Z,17.33
2017-10-04T15:47:29.080Z,8.43
2017-10-04T15:49:57.875Z,6.40
2017-10-04T15:52:26.223Z,9.77
2017-10-04T15:54:53.784Z,5.67
2017-10-04T15:57:21.376Z,8.53
2017-10-04T15:59:49.708Z,9.93
2017-10-04T16:02:17.295Z,12.07
2017-10-04T16:04:44.864Z,8.90
2017-10-04T16:07:13.237Z,11.87
2017-10-04T16:09:40.809Z,8.53
2017-10-04T16:12:09.584Z,18.73
2017-10-04T16:14:38.660Z,6.37
2017-10-04T16:17:06.224Z,8.80
2017-10-04T16:19:34.048Z,10.27
2017-10-04T16:22:01.622Z,7.77
2017-10-04T16:24:29.512Z,16.47
2017-10-04T16:26:57.077Z,7.10
2017-10-04T16:29:24.663Z,10.43
2017-10-04T16:31:52.232Z,20.57
2017-10-04T16:34:20.588Z,7.40
2017-10-04T16:36:48.972Z,14.60
2017-10-04T16:39:16.735Z,5.10
2017-10-04T16:41:44.297Z,7.23
2017-10-04T16:44:11.864Z,10.40
2017-10-04T16:46:40.229Z,8.10
2017-10-04T16:49:07.896Z,7.93
2017-10-04T16:51:35.492Z,21.37
2017-10-04T16:54:03.837Z,7.20
2017-10-04T16:56:33.844Z,7.97
2017-10-04T16:59:01.408Z,4.30
2017-10-04T17:01:29.009Z,11.80
2017-10-04T17:03:57.363Z,8.47
2017-10-04T17:06:25.119Z,7.90
2017-10-04T17:08:52.678Z,9.73
2017-10-04T17:11:20.245Z,12.60
2017-10-04T17:13:47.839Z,11.80
2017-10-04T17:16:15.415Z,15.93
2017-10-04T17:18:43.027Z,7.53
2017-10-04T17:21:10.590Z,6.30
2017-10-04T17:23:38.156Z,9.60
2017-10-04T17:26:05.748Z,5.22
2017-10-04T17:28:34.197Z,14.52
2017-10-04T17:31:01.784Z,8.63
2017-10-04T17:33:29.416Z,7.53
2017-10-04T17:35:57.008Z,12.87
2017-10-04T17:38:24.636Z,14.53
2017-10-04T17:40:52.300Z,4.33
2017-10-04T17:43:19.864Z,7.90
2017-10-04T17:45:47.456Z,7.80
2017-10-04T17:48:15.021Z,9.63
2017-10-04T17:50:42.932Z,8.57
2017-10-04T17:53:10.492Z,7.87
2017-10-04T17:55:38.056Z,6.90
2017-10-04T17:58:05.645Z,6.93
2017-10-04T18:00:34.033Z,12.90
2017-10-04T18:03:02.397Z,14.27
2017-10-04T18:05:29.959Z,7.70
2017-10-04T18:07:57.544Z,7.83
2017-10-04T18:10:25.109Z,6.70
2017-10-04T18:12:52.703Z,18.03
2017-10-04T18:15:20.276Z,7.20
2017-10-04T18:17:47.867Z,8.17
2017-10-04T18:20:16.204Z,7.80
2017-10-04T18:22:43.793Z,4.65
2017-10-04T18:25:11.391Z,7.90
2017-10-04T18:27:38.956Z,8.33
2017-10-04T18:30:06.563Z,8.20
2017-10-04T18:32:34.256Z,15.52
2017-10-04T18:35:02.629Z,11.00
2017-10-04T18:37:31.794Z,12.63
2017-10-04T18:39:59.404Z,9.17
2017-10-04T18:42:27.729Z,6.77
2017-10-04T18:44:55.288Z,8.03
2017-10-04T18:47:22.879Z,9.47
2017-10-04T18:49:50.454Z,13.48
2017-10-04T18:52:18.812Z,5.30
2017-10-04T18:54:46.702Z,12.80
2017-10-04T18:57:15.080Z,11.23
2017-10-04T18:59:43.417Z,8.70
2017-10-04T19:02:11.709Z,11.97
2017-10-04T19:04:39.304Z,12.67
2017-10-04T19:07:07.632Z,7.30
2017-10-04T19:09:35.220Z,8.50
2017-10-04T19:12:02.792Z,11.33
2017-10-04T19:14:31.300Z,8.70
2017-10-04T19:16:58.868Z,10.33
2017-10-04T19:19:26.460Z,6.87
2017-10-04T19:21:54.027Z,9.52
2017-10-04T19:24:21.587Z,9.97
2017-10-04T19:26:49.184Z,11.68
2017-10-04T19:29:17.515Z,7.23
2017-10-04T19:31:45.101Z,6.03
2017-10-04T19:34:12.674Z,10.63
2017-10-04T19:36:40.261Z,6.20
2017-10-04T19:39:07.826Z,11.30
2017-10-04T19:41:35.413Z,9.13
2017-10-04T19:44:02.981Z,4.90
2017-10-04T19:46:31.941Z,14.00
2017-10-04T19:48:59.511Z,7.90
2017-10-04T19:51:27.100Z,9.93
2017-10-04T19:53:54.668Z,8.50
2017-10-04T19:56:22.255Z,8.20
2017-10-04T19:58:49.913Z,7.12
2017-10-04T20:01:17.581Z,9.30
2017-10-04T20:03:45.924Z,8.20
2017-10-04T20:06:13.513Z,9.97
2017-10-04T20:08:41.077Z,7.10
2017-10-04T20:11:08.947Z,7.27
2017-10-04T20:13:36.515Z,13.13
2017-10-04T20:16:04.848Z,6.60
2017-10-04T20:18:32.992Z,13.55
2017-10-04T20:21:00.560Z,13.27
2017-10-04T20:23:28.152Z,10.50
2017-10-04T20:25:55.716Z,6.50
2017-10-04T20:28:23.323Z,10.57
2017-10-04T20:30:51.672Z,9.98
2017-10-04T20:33:20.005Z,9.10
2017-10-04T20:35:47.596Z,6.77
2017-10-04T20:38:15.169Z,10.20
2017-10-04T20:40:42.752Z,6.33
2017-10-04T20:43:11.089Z,12.70
2017-10-04T20:45:38.678Z,13.50
2017-10-04T20:48:06.248Z,12.27
2017-10-04T20:50:34.909Z,10.30
2017-10-04T20:53:02.485Z,20.47
2017-10-04T20:55:30.083Z,10.90
2017-10-04T20:57:58.413Z,9.20
2017-10-04T21:00:26.005Z,9.10
2017-10-04T21:02:54.335Z,8.10
2017-10-04T21:05:22.024Z,12.73
2017-10-04T21:07:49.609Z,13.50
2017-10-04T21:10:17.972Z,13.80
2017-10-04T21:12:45.536Z,10.43
2017-10-04T21:15:13.901Z,9.00
2017-10-04T21:17:41.460Z,9.50
2017-10-04T21:20:10.536Z,18.70
2017-10-04T21:22:38.124Z,8.80
2017-10-04T21:25:05.704Z,6.40
2017-10-04T21:27:34.004Z,10.93
2017-10-04T21:30:01.564Z,9.80
2017-10-04T21:32:29.167Z,9.10
2017-10-04T21:34:56.731Z,10.33
2017-10-04T21:37:24.297Z,8.13
2017-10-04T21:39:51.888Z,9.60
2017-10-04T21:42:20.220Z,7.50
2017-10-04T21:44:47.812Z,10.07
2017-10-04T21:47:15.380Z,14.30
2017-10-04T21:49:43.736Z,9.50
2017-10-04T21:52:11.297Z,8.53
2017-10-04T21:54:38.895Z,5.30
2017-10-04T21:57:06.460Z,9.10
2017-10-04T21:59:34.215Z,15.30
2017-10-04T22:02:02.549Z,11.70
2017-10-04T22:04:31.040Z,20.70
2017-10-04T22:06:58.636Z,12.97
2017-10-04T22:09:26.962Z,6.90
2017-10-04T22:11:54.548Z,9.13
2017-10-04T22:14:23.616Z,14.10
2017-10-04T22:16:51.549Z,14.43
2017-10-04T22:19:19.108Z,7.50
2017-10-04T22:21:47.468Z,13.40
2017-10-04T22:24:15.796Z,15.05
2017-10-04T22:26:43.396Z,9.10
2017-10-04T22:29:10.965Z,8.73
2017-10-04T22:31:38.536Z,11.70
2017-10-04T22:34:07.000Z,10.70
2017-10-04T22:36:34.567Z,8.40
2017-10-04T22:39:02.920Z,8.13
2017-10-04T22:41:31.948Z,14.45
2017-10-04T22:44:00.306Z,7.63
2017-10-04T22:46:29.376Z,9.05
2017-10-04T22:48:56.963Z,11.80
2017-10-04T22:51:24.533Z,9.43
2017-10-04T22:53:53.109Z,7.10
2017-10-04T22:56:20.671Z,7.50
2017-10-04T22:58:48.240Z,12.57
2017-10-04T23:01:15.833Z,20.03
2017-10-04T23:03:43.435Z,10.73
2017-10-04T23:06:11.003Z,12.90
2017-10-04T23:08:38.587Z,10.20
2017-10-04T23:11:07.240Z,8.43
2017-10-04T23:13:34.816Z,10.97
2017-10-04T23:16:02.588Z,11.77
2017-10-04T23:18:30.148Z,14.17
2017-10-04T23:20:57.716Z,11.33
2017-10-04T23:23:25.308Z,10.63
2017-10-04T23:25:52.872Z,8.93
2017-10-04T23:28:20.469Z,16.53
2017-10-04T23:30:48.038Z,21.53
2017-10-04T23:33:15.628Z,6.80
2017-10-04T23:35:43.956Z,6.80
2017-10-04T23:38:11.556Z,7.50
2017-10-04T23:40:39.124Z,11.05
2017-10-04T23:43:06.880Z,15.17
2017-10-04T23:45:34.439Z,10.77
2017-10-04T23:48:02.826Z,8.40
2017-10-04T23:50:32.840Z,6.90
2017-10-04T23:53:00.416Z,11.67
2017-10-04T23:55:28.768Z,22.50
2017-10-04T23:57:56.337Z,10.20
